Fitzhugh, OK (74843)

12:45 PM CST on December 03, 2016 (GMT -0600)
Fitzhugh, Oklahoma | | Change Station

Elev 1253 ft 34.66 °N, 96.78 °W | Updated 13 minutes ago

Rain
Rain
43.5 °F
Feels Like 40 °F
N
5.8
Wind Variable Wind from NNW

Today
High -- | Low -- °F
--% Chance of Precip.
Yesterday
High -- | Low -- °F
Precip. -- in
Pressure 30.14 in
Visibility 7.0 miles
Clouds Scattered Clouds 1700 ft
Scattered Clouds 2200 ft
Windchill 40 °F
Dew Point 43 °F
Humidity 99%
Rainfall 0.65 in
Snow Depth Not available.
7:18 AM 5:16 PM
Waxing Crescent, 16% visible
METAR KADH 031835Z AUTO 04003KT 7SM RA SCT017 SCT022 07/07 A3014 RMK AO2 P0004
Pressure 30.14 in
Visibility 7.0 miles
Clouds Scattered Clouds 1700 ft
Scattered Clouds 2200 ft
Windchill 40 °F
Dew Point 43 °F
Humidity 99%
Rainfall 0.65 in
Snow Depth Not available.
7:18 AM 5:16 PM
Waxing Crescent, 16% visible
METAR KADH 031835Z AUTO 04003KT 7SM RA SCT017 SCT022 07/07 A3014 RMK AO2 P0004

10-Day Weather Forecast

Almanac

Astronomy

Dec. 03, 2016 Rise Set
Actual Time
Civil Twilight
Nautical Twilight
Astronomical Twilight
Moon
Length of Visible Light
Length of Day
Tomorrow will be .
, % of the Moon is Illuminated

Today's Extremes

State Highs State Lows

Community

WunderPhotos

Upload Photos

1,955,469 photos uploaded!

WunderBlog® & News

Nearby

Air Quality

  Air Quality AQ Index Pollutant
Not available.

Snow Depth

Station Depth Elevation

Earthquake Activity

City Distance Mag. Time & Date
Minimum magnitude displayed is 2.5.

Coastal Water Temperatures

Place Temperature

Stations

Nearby Weather Stations

Station Location Temp. Windchill Dew Point Humidity Wind Precip. Elev Updated Type
                   

Watches & Warnings

There are currently no watches in effect.